sensor_id;sensor_type;location;lat;lon;timestamp;P1;durP1;ratioP1;P2;durP2;ratioP2
58512;SDS011;44302;47.914;10.642;2022-08-21T00:01:18;2.13;;;1.40;;
58512;SDS011;44302;47.914;10.642;2022-08-21T00:03:46;2.77;;;1.37;;
58512;SDS011;44302;47.914;10.642;2022-08-21T00:06:12;1.90;;;1.60;;
58512;SDS011;44302;47.914;10.642;2022-08-21T00:08:39;1.50;;;1.40;;
58512;SDS011;44302;47.914;10.642;2022-08-21T00:11:04;1.50;;;1.40;;
58512;SDS011;44302;47.914;10.642;2022-08-21T00:13:31;1.50;;;1.40;;
58512;SDS011;44302;47.914;10.642;2022-08-21T00:15:58;5.00;;;1.63;;
58512;SDS011;44302;47.914;10.642;2022-08-21T00:18:24;1.90;;;1.33;;
58512;SDS011;44302;47.914;10.642;2022-08-21T00:20:50;1.90;;;1.80;;
58512;SDS011;44302;47.914;10.642;2022-08-21T00:23:16;1.77;;;1.67;;
58512;SDS011;44302;47.914;10.642;2022-08-21T00:25:42;1.77;;;1.67;;
58512;SDS011;44302;47.914;10.642;2022-08-21T00:28:08;1.60;;;1.40;;
58512;SDS011;44302;47.914;10.642;2022-08-21T00:30:35;1.60;;;1.37;;
58512;SDS011;44302;47.914;10.642;2022-08-21T00:33:01;1.80;;;1.60;;
58512;SDS011;44302;47.914;10.642;2022-08-21T00:35:30;1.30;;;1.20;;
58512;SDS011;44302;47.914;10.642;2022-08-21T00:37:59;4.43;;;1.40;;
58512;SDS011;44302;47.914;10.642;2022-08-21T00:40:27;1.47;;;1.30;;
58512;SDS011;44302;47.914;10.642;2022-08-21T00:42:55;2.90;;;1.50;;
58512;SDS011;44302;47.914;10.642;2022-08-21T00:45:21;1.60;;;1.47;;
58512;SDS011;44302;47.914;10.642;2022-08-21T00:47:47;1.47;;;1.37;;
58512;SDS011;44302;47.914;10.642;2022-08-21T00:50:13;3.80;;;1.40;;
58512;SDS011;44302;47.914;10.642;2022-08-21T00:52:40;1.57;;;1.47;;
58512;SDS011;44302;47.914;10.642;2022-08-21T00:55:07;1.40;;;1.30;;
58512;SDS011;44302;47.914;10.642;2022-08-21T00:57:40;1.70;;;1.37;;
58512;SDS011;44302;47.914;10.642;2022-08-21T01:00:10;1.40;;;1.30;;
58512;SDS011;44302;47.914;10.642;2022-08-21T01:02:38;2.00;;;1.33;;
58512;SDS011;44302;47.914;10.642;2022-08-21T01:05:04;3.30;;;1.40;;
58512;SDS011;44302;47.914;10.642;2022-08-21T01:07:31;2.37;;;1.43;;
58512;SDS011;44302;47.914;10.642;2022-08-21T01:09:56;1.63;;;1.53;;
58512;SDS011;44302;47.914;10.642;2022-08-21T01:12:23;1.63;;;1.47;;
58512;SDS011;44302;47.914;10.642;2022-08-21T01:14:49;1.50;;;1.40;;
58512;SDS011;44302;47.914;10.642;2022-08-21T01:17:15;2.70;;;1.53;;
58512;SDS011;44302;47.914;10.642;2022-08-21T01:19:42;2.70;;;1.27;;
58512;SDS011;44302;47.914;10.642;2022-08-21T01:22:08;1.30;;;1.20;;
58512;SDS011;44302;47.914;10.642;2022-08-21T01:24:35;1.50;;;1.40;;
58512;SDS011;44302;47.914;10.642;2022-08-21T01:27:00;1.30;;;1.20;;
58512;SDS011;44302;47.914;10.642;2022-08-21T01:29:47;1.90;;;1.40;;
58512;SDS011;44302;47.914;10.642;2022-08-21T01:32:18;1.40;;;1.30;;
58512;SDS011;44302;47.914;10.642;2022-08-21T01:34:45;1.97;;;1.30;;
58512;SDS011;44302;47.914;10.642;2022-08-21T01:37:13;3.27;;;1.70;;
58512;SDS011;44302;47.914;10.642;2022-08-21T01:39:39;2.43;;;1.50;;
58512;SDS011;44302;47.914;10.642;2022-08-21T01:42:05;1.40;;;1.20;;
58512;SDS011;44302;47.914;10.642;2022-08-21T01:44:31;1.87;;;1.70;;
58512;SDS011;44302;47.914;10.642;2022-08-21T01:46:58;1.70;;;1.50;;
58512;SDS011;44302;47.914;10.642;2022-08-21T01:49:26;1.80;;;1.30;;
58512;SDS011;44302;47.914;10.642;2022-08-21T01:51:52;1.40;;;1.30;;
58512;SDS011;44302;47.914;10.642;2022-08-21T01:54:18;1.50;;;1.40;;
58512;SDS011;44302;47.914;10.642;2022-08-21T01:56:45;1.80;;;1.60;;
58512;SDS011;44302;47.914;10.642;2022-08-21T01:59:13;4.23;;;1.70;;
58512;SDS011;44302;47.914;10.642;2022-08-21T02:01:39;1.70;;;1.60;;
58512;SDS011;44302;47.914;10.642;2022-08-21T02:04:06;1.73;;;1.63;;
58512;SDS011;44302;47.914;10.642;2022-08-21T02:06:33;1.60;;;1.50;;
58512;SDS011;44302;47.914;10.642;2022-08-21T02:08:59;1.50;;;1.40;;
58512;SDS011;44302;47.914;10.642;2022-08-21T02:11:25;1.80;;;1.70;;
58512;SDS011;44302;47.914;10.642;2022-08-21T02:13:51;2.67;;;1.50;;
58512;SDS011;44302;47.914;10.642;2022-08-21T02:16:17;4.57;;;1.67;;
58512;SDS011;44302;47.914;10.642;2022-08-21T02:18:43;1.80;;;1.70;;
58512;SDS011;44302;47.914;10.642;2022-08-21T02:21:08;3.17;;;1.30;;
58512;SDS011;44302;47.914;10.642;2022-08-21T02:23:34;2.43;;;1.80;;
58512;SDS011;44302;47.914;10.642;2022-08-21T02:26:02;1.70;;;1.60;;
58512;SDS011;44302;47.914;10.642;2022-08-21T02:28:29;1.63;;;1.53;;
58512;SDS011;44302;47.914;10.642;2022-08-21T02:30:55;1.97;;;1.43;;
58512;SDS011;44302;47.914;10.642;2022-08-21T02:33:21;3.13;;;1.53;;
58512;SDS011;44302;47.914;10.642;2022-08-21T02:35:48;4.83;;;1.70;;
58512;SDS011;44302;47.914;10.642;2022-08-21T02:38:16;7.40;;;2.40;;
58512;SDS011;44302;47.914;10.642;2022-08-21T02:40:46;1.47;;;1.30;;
58512;SDS011;44302;47.914;10.642;2022-08-21T05:27:02;2.90;;;1.90;;
58512;SDS011;44302;47.914;10.642;2022-08-21T05:29:28;2.33;;;2.10;;
58512;SDS011;44302;47.914;10.642;2022-08-21T05:31:55;2.80;;;2.50;;
58512;SDS011;44302;47.914;10.642;2022-08-21T05:34:21;3.77;;;2.50;;
58512;SDS011;44302;47.914;10.642;2022-08-21T05:36:48;2.37;;;2.17;;
58512;SDS011;44302;47.914;10.642;2022-08-21T05:39:14;2.57;;;1.90;;
58512;SDS011;44302;47.914;10.642;2022-08-21T05:58:35;1.70;;;1.60;;
58512;SDS011;44302;47.914;10.642;2022-08-21T06:01:01;3.03;;;1.70;;
58512;SDS011;44302;47.914;10.642;2022-08-21T06:03:29;1.83;;;1.67;;
58512;SDS011;44302;47.914;10.642;2022-08-21T06:05:56;3.30;;;1.63;;
58512;SDS011;44302;47.914;10.642;2022-08-21T06:08:22;2.33;;;1.40;;
58512;SDS011;44302;47.914;10.642;2022-08-21T06:10:49;2.20;;;1.47;;
58512;SDS011;44302;47.914;10.642;2022-08-21T06:25:03;4.83;;;1.53;;
58512;SDS011;44302;47.914;10.642;2022-08-21T06:27:29;1.80;;;1.27;;
58512;SDS011;44302;47.914;10.642;2022-08-21T06:29:55;1.17;;;1.07;;
58512;SDS011;44302;47.914;10.642;2022-08-21T06:32:22;3.00;;;1.67;;
58512;SDS011;44302;47.914;10.642;2022-08-21T06:34:48;4.50;;;1.40;;
58512;SDS011;44302;47.914;10.642;2022-08-21T06:37:14;1.87;;;1.30;;
58512;SDS011;44302;47.914;10.642;2022-08-21T06:39:39;2.27;;;1.13;;
58512;SDS011;44302;47.914;10.642;2022-08-21T06:42:05;1.30;;;1.20;;
58512;SDS011;44302;47.914;10.642;2022-08-21T06:44:31;2.57;;;1.27;;
58512;SDS011;44302;47.914;10.642;2022-08-21T06:56:44;2.47;;;1.43;;
58512;SDS011;44302;47.914;10.642;2022-08-21T06:59:09;1.27;;;1.13;;
58512;SDS011;44302;47.914;10.642;2022-08-21T07:01:35;4.47;;;1.40;;
58512;SDS011;44302;47.914;10.642;2022-08-21T07:04:01;2.87;;;1.60;;
58512;SDS011;44302;47.914;10.642;2022-08-21T07:06:27;2.30;;;1.30;;
58512;SDS011;44302;47.914;10.642;2022-08-21T07:08:53;6.30;;;1.63;;
58512;SDS011;44302;47.914;10.642;2022-08-21T07:11:23;2.00;;;1.50;;
58512;SDS011;44302;47.914;10.642;2022-08-21T07:13:50;1.80;;;1.40;;
58512;SDS011;44302;47.914;10.642;2022-08-21T07:16:17;1.73;;;1.50;;
58512;SDS011;44302;47.914;10.642;2022-08-21T07:18:44;1.87;;;1.70;;
58512;SDS011;44302;47.914;10.642;2022-08-21T07:21:10;1.70;;;1.40;;
58512;SDS011;44302;47.914;10.642;2022-08-21T07:23:42;2.17;;;1.70;;
58512;SDS011;44302;47.914;10.642;2022-08-21T07:26:11;1.90;;;1.73;;
58512;SDS011;44302;47.914;10.642;2022-08-21T07:28:37;2.30;;;1.53;;
58512;SDS011;44302;47.914;10.642;2022-08-21T07:31:03;3.23;;;1.73;;
58512;SDS011;44302;47.914;10.642;2022-08-21T07:33:30;3.27;;;1.43;;
58512;SDS011;44302;47.914;10.642;2022-08-21T07:35:57;5.77;;;2.43;;
58512;SDS011;44302;47.914;10.642;2022-08-21T07:38:23;4.57;;;1.67;;
58512;SDS011;44302;47.914;10.642;2022-08-21T07:40:49;5.60;;;1.60;;
58512;SDS011;44302;47.914;10.642;2022-08-21T07:43:17;2.17;;;1.60;;
58512;SDS011;44302;47.914;10.642;2022-08-21T07:45:43;3.23;;;1.53;;
58512;SDS011;44302;47.914;10.642;2022-08-21T07:48:09;2.00;;;1.50;;
58512;SDS011;44302;47.914;10.642;2022-08-21T07:50:36;3.07;;;1.60;;
58512;SDS011;44302;47.914;10.642;2022-08-21T07:53:02;2.47;;;1.50;;
58512;SDS011;44302;47.914;10.642;2022-08-21T07:55:28;3.13;;;1.77;;
58512;SDS011;44302;47.914;10.642;2022-08-21T07:57:54;2.10;;;1.27;;
58512;SDS011;44302;47.914;10.642;2022-08-21T08:00:21;5.23;;;1.53;;
58512;SDS011;44302;47.914;10.642;2022-08-21T08:02:49;2.13;;;1.50;;
58512;SDS011;44302;47.914;10.642;2022-08-21T08:05:18;3.17;;;1.43;;
58512;SDS011;44302;47.914;10.642;2022-08-21T08:07:45;4.37;;;1.57;;
58512;SDS011;44302;47.914;10.642;2022-08-21T08:10:11;3.27;;;2.20;;
58512;SDS011;44302;47.914;10.642;2022-08-21T08:12:38;3.13;;;1.60;;
58512;SDS011;44302;47.914;10.642;2022-08-21T08:15:08;3.90;;;2.13;;
58512;SDS011;44302;47.914;10.642;2022-08-21T08:17:37;2.20;;;1.50;;
58512;SDS011;44302;47.914;10.642;2022-08-21T08:20:04;4.77;;;1.60;;
58512;SDS011;44302;47.914;10.642;2022-08-21T08:22:32;2.47;;;1.73;;
58512;SDS011;44302;47.914;10.642;2022-08-21T08:25:02;2.50;;;1.50;;
58512;SDS011;44302;47.914;10.642;2022-08-21T08:27:29;3.53;;;2.37;;
58512;SDS011;44302;47.914;10.642;2022-08-21T08:29:55;3.27;;;2.00;;
58512;SDS011;44302;47.914;10.642;2022-08-21T08:32:20;6.53;;;1.53;;
58512;SDS011;44302;47.914;10.642;2022-08-21T08:34:47;2.50;;;1.60;;
58512;SDS011;44302;47.914;10.642;2022-08-21T08:37:14;2.83;;;1.67;;
58512;SDS011;44302;47.914;10.642;2022-08-21T08:39:40;5.30;;;1.70;;
58512;SDS011;44302;47.914;10.642;2022-08-21T08:42:11;3.83;;;2.03;;
58512;SDS011;44302;47.914;10.642;2022-08-21T08:44:43;4.80;;;1.37;;
58512;SDS011;44302;47.914;10.642;2022-08-21T08:47:10;2.80;;;1.40;;
58512;SDS011;44302;47.914;10.642;2022-08-21T08:52:36;3.80;;;1.60;;
58512;SDS011;44302;47.914;10.642;2022-08-21T08:55:09;2.20;;;1.20;;
58512;SDS011;44302;47.914;10.642;2022-08-21T08:57:42;1.67;;;1.33;;
58512;SDS011;44302;47.914;10.642;2022-08-21T09:00:11;2.17;;;1.50;;
58512;SDS011;44302;47.914;10.642;2022-08-21T09:02:38;1.97;;;1.53;;
58512;SDS011;44302;47.914;10.642;2022-08-21T09:05:05;2.73;;;1.50;;
58512;SDS011;44302;47.914;10.642;2022-08-21T09:10:13;3.57;;;1.40;;
58512;SDS011;44302;47.914;10.642;2022-08-21T09:18:15;3.07;;;1.63;;
58512;SDS011;44302;47.914;10.642;2022-08-21T09:21:07;4.43;;;1.67;;
58512;SDS011;44302;47.914;10.642;2022-08-21T09:26:21;5.10;;;1.97;;
58512;SDS011;44302;47.914;10.642;2022-08-21T09:28:53;3.53;;;1.80;;
58512;SDS011;44302;47.914;10.642;2022-08-21T09:31:22;2.53;;;1.83;;
58512;SDS011;44302;47.914;10.642;2022-08-21T09:33:56;2.83;;;1.70;;
58512;SDS011;44302;47.914;10.642;2022-08-21T09:36:33;6.37;;;1.50;;
58512;SDS011;44302;47.914;10.642;2022-08-21T09:39:03;2.50;;;1.60;;
58512;SDS011;44302;47.914;10.642;2022-08-21T09:41:31;3.97;;;1.90;;
58512;SDS011;44302;47.914;10.642;2022-08-21T09:43:59;5.23;;;2.67;;
58512;SDS011;44302;47.914;10.642;2022-08-21T09:46:26;3.20;;;1.67;;
58512;SDS011;44302;47.914;10.642;2022-08-21T09:48:54;3.17;;;1.67;;
58512;SDS011;44302;47.914;10.642;2022-08-21T09:56:34;2.70;;;1.70;;
58512;SDS011;44302;47.914;10.642;2022-08-21T10:01:49;4.43;;;2.43;;
58512;SDS011;44302;47.914;10.642;2022-08-21T10:04:24;2.10;;;1.90;;
58512;SDS011;44302;47.914;10.642;2022-08-21T10:07:08;2.53;;;2.13;;
58512;SDS011;44302;47.914;10.642;2022-08-21T10:09:34;2.90;;;2.00;;
58512;SDS011;44302;47.914;10.642;2022-08-21T10:17:28;3.30;;;2.33;;
58512;SDS011;44302;47.914;10.642;2022-08-21T10:25:40;1.73;;;1.60;;
58512;SDS011;44302;47.914;10.642;2022-08-21T10:28:25;2.30;;;2.00;;
58512;SDS011;44302;47.914;10.642;2022-08-21T10:31:03;2.80;;;1.97;;
58512;SDS011;44302;47.914;10.642;2022-08-21T10:36:58;2.10;;;1.90;;
58512;SDS011;44302;47.914;10.642;2022-08-21T10:39:34;4.37;;;2.00;;
58512;SDS011;44302;47.914;10.642;2022-08-21T10:42:09;5.00;;;1.80;;
58512;SDS011;44302;47.914;10.642;2022-08-21T10:45:08;3.37;;;1.60;;
58512;SDS011;44302;47.914;10.642;2022-08-21T10:48:00;2.43;;;2.00;;
58512;SDS011;44302;47.914;10.642;2022-08-21T10:53:05;2.57;;;1.90;;
58512;SDS011;44302;47.914;10.642;2022-08-21T10:55:41;2.97;;;1.77;;
58512;SDS011;44302;47.914;10.642;2022-08-21T10:58:24;3.50;;;2.30;;
58512;SDS011;44302;47.914;10.642;2022-08-21T11:00:58;2.17;;;1.97;;
58512;SDS011;44302;47.914;10.642;2022-08-21T11:03:42;2.00;;;1.57;;
58512;SDS011;44302;47.914;10.642;2022-08-21T11:06:26;2.13;;;1.80;;
58512;SDS011;44302;47.914;10.642;2022-08-21T11:09:11;3.40;;;1.90;;
58512;SDS011;44302;47.914;10.642;2022-08-21T11:11:41;6.83;;;1.83;;
58512;SDS011;44302;47.914;10.642;2022-08-21T11:19:41;2.70;;;1.90;;
58512;SDS011;44302;47.914;10.642;2022-08-21T11:25:04;3.10;;;1.50;;
58512;SDS011;44302;47.914;10.642;2022-08-21T11:27:33;1.70;;;1.60;;
58512;SDS011;44302;47.914;10.642;2022-08-21T11:30:06;2.17;;;1.73;;
58512;SDS011;44302;47.914;10.642;2022-08-21T11:43:50;2.53;;;1.80;;
58512;SDS011;44302;47.914;10.642;2022-08-21T11:46:28;3.80;;;2.00;;
58512;SDS011;44302;47.914;10.642;2022-08-21T11:54:58;3.17;;;1.83;;
58512;SDS011;44302;47.914;10.642;2022-08-21T11:57:30;1.97;;;1.77;;
58512;SDS011;44302;47.914;10.642;2022-08-21T12:00:15;2.53;;;1.80;;
58512;SDS011;44302;47.914;10.642;2022-08-21T12:02:49;2.57;;;1.60;;
58512;SDS011;44302;47.914;10.642;2022-08-21T12:05:38;2.03;;;1.83;;
58512;SDS011;44302;47.914;10.642;2022-08-21T12:08:11;3.70;;;2.00;;
58512;SDS011;44302;47.914;10.642;2022-08-21T12:10:46;1.90;;;1.70;;
58512;SDS011;44302;47.914;10.642;2022-08-21T12:13:25;2.57;;;1.93;;
58512;SDS011;44302;47.914;10.642;2022-08-21T12:16:04;3.07;;;1.77;;
58512;SDS011;44302;47.914;10.642;2022-08-21T12:18:40;2.30;;;2.03;;
58512;SDS011;44302;47.914;10.642;2022-08-21T12:21:24;3.33;;;1.80;;
58512;SDS011;44302;47.914;10.642;2022-08-21T12:26:52;2.00;;;1.80;;
58512;SDS011;44302;47.914;10.642;2022-08-21T12:34:18;2.33;;;1.70;;
58512;SDS011;44302;47.914;10.642;2022-08-21T12:36:48;3.03;;;2.03;;
58512;SDS011;44302;47.914;10.642;2022-08-21T12:39:24;2.37;;;2.10;;
58512;SDS011;44302;47.914;10.642;2022-08-21T12:42:04;2.20;;;1.57;;
58512;SDS011;44302;47.914;10.642;2022-08-21T12:44:43;1.70;;;1.60;;
58512;SDS011;44302;47.914;10.642;2022-08-21T12:47:25;2.10;;;1.90;;
58512;SDS011;44302;47.914;10.642;2022-08-21T12:52:28;2.47;;;1.83;;
58512;SDS011;44302;47.914;10.642;2022-08-21T12:54:57;4.93;;;1.70;;
58512;SDS011;44302;47.914;10.642;2022-08-21T12:57:24;1.70;;;1.60;;
58512;SDS011;44302;47.914;10.642;2022-08-21T13:02:30;2.27;;;1.60;;
58512;SDS011;44302;47.914;10.642;2022-08-21T13:04:58;3.30;;;2.00;;
58512;SDS011;44302;47.914;10.642;2022-08-21T13:07:30;4.23;;;1.70;;
58512;SDS011;44302;47.914;10.642;2022-08-21T13:10:05;2.20;;;2.10;;
58512;SDS011;44302;47.914;10.642;2022-08-21T13:12:37;3.60;;;1.83;;
58512;SDS011;44302;47.914;10.642;2022-08-21T13:15:04;2.27;;;1.90;;
58512;SDS011;44302;47.914;10.642;2022-08-21T13:17:31;4.03;;;1.87;;
58512;SDS011;44302;47.914;10.642;2022-08-21T13:20:03;3.73;;;1.60;;
58512;SDS011;44302;47.914;10.642;2022-08-21T13:22:31;2.10;;;1.47;;
58512;SDS011;44302;47.914;10.642;2022-08-21T13:25:00;2.03;;;1.83;;
58512;SDS011;44302;47.914;10.642;2022-08-21T13:27:28;4.30;;;2.20;;
58512;SDS011;44302;47.914;10.642;2022-08-21T13:30:11;2.50;;;2.07;;
58512;SDS011;44302;47.914;10.642;2022-08-21T13:32:43;1.93;;;1.60;;
58512;SDS011;44302;47.914;10.642;2022-08-21T13:35:21;2.00;;;1.70;;
58512;SDS011;44302;47.914;10.642;2022-08-21T13:37:51;1.97;;;1.73;;
58512;SDS011;44302;47.914;10.642;2022-08-21T13:40:25;1.70;;;1.60;;
58512;SDS011;44302;47.914;10.642;2022-08-21T13:42:51;6.90;;;1.97;;
58512;SDS011;44302;47.914;10.642;2022-08-21T13:45:21;2.90;;;1.87;;
58512;SDS011;44302;47.914;10.642;2022-08-21T13:47:51;3.77;;;1.87;;
58512;SDS011;44302;47.914;10.642;2022-08-21T13:50:19;2.10;;;1.70;;
58512;SDS011;44302;47.914;10.642;2022-08-21T13:52:53;1.80;;;1.70;;
58512;SDS011;44302;47.914;10.642;2022-08-21T13:55:40;2.33;;;1.63;;
58512;SDS011;44302;47.914;10.642;2022-08-21T13:58:08;1.97;;;1.87;;
58512;SDS011;44302;47.914;10.642;2022-08-21T14:00:44;2.10;;;1.90;;
58512;SDS011;44302;47.914;10.642;2022-08-21T14:03:26;1.73;;;1.63;;
58512;SDS011;44302;47.914;10.642;2022-08-21T14:05:56;2.57;;;1.60;;
58512;SDS011;44302;47.914;10.642;2022-08-21T14:08:35;1.80;;;1.60;;
58512;SDS011;44302;47.914;10.642;2022-08-21T14:11:05;1.93;;;1.70;;
58512;SDS011;44302;47.914;10.642;2022-08-21T14:13:38;2.20;;;1.50;;
58512;SDS011;44302;47.914;10.642;2022-08-21T14:18:48;1.87;;;1.63;;
58512;SDS011;44302;47.914;10.642;2022-08-21T14:21:37;2.33;;;1.87;;
58512;SDS011;44302;47.914;10.642;2022-08-21T14:24:07;2.53;;;1.67;;
58512;SDS011;44302;47.914;10.642;2022-08-21T14:26:50;2.70;;;1.90;;
58512;SDS011;44302;47.914;10.642;2022-08-21T14:29:24;1.97;;;1.77;;
58512;SDS011;44302;47.914;10.642;2022-08-21T14:31:57;1.77;;;1.60;;
58512;SDS011;44302;47.914;10.642;2022-08-21T14:34:24;1.93;;;1.70;;
58512;SDS011;44302;47.914;10.642;2022-08-21T14:36:52;7.03;;;1.90;;
58512;SDS011;44302;47.914;10.642;2022-08-21T14:39:18;2.20;;;2.00;;
58512;SDS011;44302;47.914;10.642;2022-08-21T14:41:44;2.57;;;1.80;;
58512;SDS011;44302;47.914;10.642;2022-08-21T14:44:13;2.40;;;2.20;;
58512;SDS011;44302;47.914;10.642;2022-08-21T14:46:43;2.60;;;2.10;;
58512;SDS011;44302;47.914;10.642;2022-08-21T14:49:10;2.73;;;2.10;;
58512;SDS011;44302;47.914;10.642;2022-08-21T14:51:36;1.73;;;1.57;;
58512;SDS011;44302;47.914;10.642;2022-08-21T14:54:03;2.80;;;2.10;;
58512;SDS011;44302;47.914;10.642;2022-08-21T14:56:30;3.00;;;1.97;;
58512;SDS011;44302;47.914;10.642;2022-08-21T14:58:58;3.70;;;2.20;;
58512;SDS011;44302;47.914;10.642;2022-08-21T15:01:27;3.97;;;2.20;;
58512;SDS011;44302;47.914;10.642;2022-08-21T15:03:53;2.60;;;1.80;;
58512;SDS011;44302;47.914;10.642;2022-08-21T15:06:19;2.70;;;2.10;;
58512;SDS011;44302;47.914;10.642;2022-08-21T15:08:46;2.00;;;1.77;;
58512;SDS011;44302;47.914;10.642;2022-08-21T15:11:15;5.03;;;2.03;;
58512;SDS011;44302;47.914;10.642;2022-08-21T15:13:44;3.20;;;1.90;;
58512;SDS011;44302;47.914;10.642;2022-08-21T15:16:11;3.90;;;1.90;;
58512;SDS011;44302;47.914;10.642;2022-08-21T15:18:36;2.03;;;1.83;;
58512;SDS011;44302;47.914;10.642;2022-08-21T15:21:02;2.27;;;1.83;;
58512;SDS011;44302;47.914;10.642;2022-08-21T15:23:28;1.97;;;1.70;;
58512;SDS011;44302;47.914;10.642;2022-08-21T15:25:54;3.60;;;1.70;;
58512;SDS011;44302;47.914;10.642;2022-08-21T15:28:22;2.20;;;1.73;;
58512;SDS011;44302;47.914;10.642;2022-08-21T15:30:49;3.03;;;1.80;;
58512;SDS011;44302;47.914;10.642;2022-08-21T15:33:16;1.80;;;1.70;;
58512;SDS011;44302;47.914;10.642;2022-08-21T15:35:42;2.40;;;1.90;;
58512;SDS011;44302;47.914;10.642;2022-08-21T15:38:11;1.87;;;1.73;;
58512;SDS011;44302;47.914;10.642;2022-08-21T15:40:37;2.20;;;2.00;;
58512;SDS011;44302;47.914;10.642;2022-08-21T15:43:04;2.37;;;1.93;;
58512;SDS011;44302;47.914;10.642;2022-08-21T15:45:30;19.37;;;3.00;;
58512;SDS011;44302;47.914;10.642;2022-08-21T15:47:57;3.63;;;2.80;;
58512;SDS011;44302;47.914;10.642;2022-08-21T15:50:23;4.50;;;2.07;;
58512;SDS011;44302;47.914;10.642;2022-08-21T15:52:49;5.73;;;3.30;;
58512;SDS011;44302;47.914;10.642;2022-08-21T15:55:15;6.50;;;2.20;;
58512;SDS011;44302;47.914;10.642;2022-08-21T15:57:45;3.13;;;1.70;;
58512;SDS011;44302;47.914;10.642;2022-08-21T16:02:43;3.50;;;2.43;;
58512;SDS011;44302;47.914;10.642;2022-08-21T16:05:11;13.03;;;7.03;;
58512;SDS011;44302;47.914;10.642;2022-08-21T16:07:37;7.27;;;4.47;;
58512;SDS011;44302;47.914;10.642;2022-08-21T16:10:04;4.77;;;2.80;;
58512;SDS011;44302;47.914;10.642;2022-08-21T16:12:32;3.10;;;2.10;;
58512;SDS011;44302;47.914;10.642;2022-08-21T16:15:03;3.00;;;2.23;;
58512;SDS011;44302;47.914;10.642;2022-08-21T16:17:33;2.57;;;2.20;;
58512;SDS011;44302;47.914;10.642;2022-08-21T16:20:01;2.50;;;2.10;;
58512;SDS011;44302;47.914;10.642;2022-08-21T16:22:29;8.53;;;2.90;;
58512;SDS011;44302;47.914;10.642;2022-08-21T16:24:55;2.30;;;2.10;;
58512;SDS011;44302;47.914;10.642;2022-08-21T16:27:21;3.00;;;2.00;;
58512;SDS011;44302;47.914;10.642;2022-08-21T16:29:47;2.33;;;1.97;;
58512;SDS011;44302;47.914;10.642;2022-08-21T16:32:13;2.80;;;1.90;;
58512;SDS011;44302;47.914;10.642;2022-08-21T16:34:41;3.80;;;2.00;;
58512;SDS011;44302;47.914;10.642;2022-08-21T16:37:11;3.33;;;2.00;;
58512;SDS011;44302;47.914;10.642;2022-08-21T16:39:37;2.77;;;2.20;;
58512;SDS011;44302;47.914;10.642;2022-08-21T16:42:03;7.53;;;2.20;;
58512;SDS011;44302;47.914;10.642;2022-08-21T16:44:30;2.43;;;2.07;;
58512;SDS011;44302;47.914;10.642;2022-08-21T16:46:59;2.57;;;2.10;;
58512;SDS011;44302;47.914;10.642;2022-08-21T16:49:26;5.17;;;2.77;;
58512;SDS011;44302;47.914;10.642;2022-08-21T16:51:51;5.33;;;1.97;;
58512;SDS011;44302;47.914;10.642;2022-08-21T16:54:18;2.57;;;2.13;;
58512;SDS011;44302;47.914;10.642;2022-08-21T16:56:44;6.30;;;1.93;;
58512;SDS011;44302;47.914;10.642;2022-08-21T16:59:10;2.47;;;1.97;;
58512;SDS011;44302;47.914;10.642;2022-08-21T17:01:37;2.27;;;1.83;;
58512;SDS011;44302;47.914;10.642;2022-08-21T17:04:03;3.17;;;2.10;;
58512;SDS011;44302;47.914;10.642;2022-08-21T17:06:29;4.30;;;3.20;;
58512;SDS011;44302;47.914;10.642;2022-08-21T17:08:55;2.57;;;1.90;;
58512;SDS011;44302;47.914;10.642;2022-08-21T17:11:32;2.13;;;1.90;;
58512;SDS011;44302;47.914;10.642;2022-08-21T17:14:12;4.30;;;2.50;;
58512;SDS011;44302;47.914;10.642;2022-08-21T17:16:43;4.00;;;2.50;;
58512;SDS011;44302;47.914;10.642;2022-08-21T17:19:10;6.80;;;2.33;;
58512;SDS011;44302;47.914;10.642;2022-08-21T17:21:37;4.00;;;2.63;;
58512;SDS011;44302;47.914;10.642;2022-08-21T17:24:04;4.80;;;2.87;;
58512;SDS011;44302;47.914;10.642;2022-08-21T17:26:30;3.27;;;2.17;;
58512;SDS011;44302;47.914;10.642;2022-08-21T17:28:56;3.23;;;2.00;;
58512;SDS011;44302;47.914;10.642;2022-08-21T17:31:22;2.70;;;2.07;;
58512;SDS011;44302;47.914;10.642;2022-08-21T17:33:49;2.40;;;1.90;;
58512;SDS011;44302;47.914;10.642;2022-08-21T17:36:21;4.63;;;1.97;;
58512;SDS011;44302;47.914;10.642;2022-08-21T17:38:49;3.53;;;2.20;;
58512;SDS011;44302;47.914;10.642;2022-08-21T17:41:15;3.73;;;2.40;;
58512;SDS011;44302;47.914;10.642;2022-08-21T17:43:41;10.20;;;2.60;;
58512;SDS011;44302;47.914;10.642;2022-08-21T17:46:09;3.53;;;2.20;;
58512;SDS011;44302;47.914;10.642;2022-08-21T17:48:39;5.33;;;2.27;;
58512;SDS011;44302;47.914;10.642;2022-08-21T17:51:05;3.40;;;2.20;;
58512;SDS011;44302;47.914;10.642;2022-08-21T17:53:34;2.70;;;2.30;;
58512;SDS011;44302;47.914;10.642;2022-08-21T17:56:01;3.33;;;2.40;;
58512;SDS011;44302;47.914;10.642;2022-08-21T17:58:26;6.10;;;2.87;;
58512;SDS011;44302;47.914;10.642;2022-08-21T18:00:53;6.93;;;2.67;;
58512;SDS011;44302;47.914;10.642;2022-08-21T18:03:20;6.60;;;2.80;;
58512;SDS011;44302;47.914;10.642;2022-08-21T18:05:47;7.90;;;3.20;;
58512;SDS011;44302;47.914;10.642;2022-08-21T18:08:14;2.50;;;1.97;;
58512;SDS011;44302;47.914;10.642;2022-08-21T18:10:41;4.30;;;2.83;;
58512;SDS011;44302;47.914;10.642;2022-08-21T18:13:11;4.67;;;2.80;;
58512;SDS011;44302;47.914;10.642;2022-08-21T18:15:40;4.87;;;2.80;;
58512;SDS011;44302;47.914;10.642;2022-08-21T18:18:10;2.83;;;2.57;;
58512;SDS011;44302;47.914;10.642;2022-08-21T18:20:36;4.70;;;3.00;;
58512;SDS011;44302;47.914;10.642;2022-08-21T18:23:01;3.67;;;3.07;;
58512;SDS011;44302;47.914;10.642;2022-08-21T18:25:28;5.80;;;3.77;;
58512;SDS011;44302;47.914;10.642;2022-08-21T18:27:54;4.03;;;3.07;;
58512;SDS011;44302;47.914;10.642;2022-08-21T18:30:21;3.60;;;3.30;;
58512;SDS011;44302;47.914;10.642;2022-08-21T18:32:48;3.87;;;2.67;;
58512;SDS011;44302;47.914;10.642;2022-08-21T18:35:15;3.70;;;2.73;;
58512;SDS011;44302;47.914;10.642;2022-08-21T18:37:41;6.17;;;2.90;;
58512;SDS011;44302;47.914;10.642;2022-08-21T18:40:07;7.37;;;3.20;;
58512;SDS011;44302;47.914;10.642;2022-08-21T18:42:36;4.07;;;3.43;;
58512;SDS011;44302;47.914;10.642;2022-08-21T18:45:08;5.27;;;3.13;;
58512;SDS011;44302;47.914;10.642;2022-08-21T18:47:41;3.83;;;3.23;;
58512;SDS011;44302;47.914;10.642;2022-08-21T18:50:11;5.47;;;3.03;;
58512;SDS011;44302;47.914;10.642;2022-08-21T18:52:38;4.43;;;3.10;;
58512;SDS011;44302;47.914;10.642;2022-08-21T18:55:04;6.87;;;3.97;;
58512;SDS011;44302;47.914;10.642;2022-08-21T18:57:31;4.53;;;3.60;;
58512;SDS011;44302;47.914;10.642;2022-08-21T18:59:58;5.00;;;3.10;;
58512;SDS011;44302;47.914;10.642;2022-08-21T19:02:24;4.60;;;3.53;;
58512;SDS011;44302;47.914;10.642;2022-08-21T19:04:50;5.47;;;3.53;;
58512;SDS011;44302;47.914;10.642;2022-08-21T19:07:16;4.73;;;3.57;;
58512;SDS011;44302;47.914;10.642;2022-08-21T19:09:44;6.00;;;4.10;;
58512;SDS011;44302;47.914;10.642;2022-08-21T19:12:10;5.93;;;4.73;;
58512;SDS011;44302;47.914;10.642;2022-08-21T19:14:39;8.37;;;6.57;;
58512;SDS011;44302;47.914;10.642;2022-08-21T19:17:05;13.27;;;8.33;;
58512;SDS011;44302;47.914;10.642;2022-08-21T19:19:31;15.93;;;9.13;;
58512;SDS011;44302;47.914;10.642;2022-08-21T19:21:57;11.90;;;8.37;;
58512;SDS011;44302;47.914;10.642;2022-08-21T19:24:23;10.67;;;8.17;;
58512;SDS011;44302;47.914;10.642;2022-08-21T19:26:49;12.83;;;7.77;;
58512;SDS011;44302;47.914;10.642;2022-08-21T19:29:15;11.67;;;8.50;;